aviador You're here:

KSHM Decoded Metar

in
Report Time2017-07-21 07:58:00
UTC Time2017-07-21 08:38:58
Flight Rules vfr VFR
Wind350° at 11 kt
W.Rank350° ranks 1
Current wind is above 350° avg. (9.8)
Visibility9999 m
Phenomena:N/A
Clouds:N/A
Expected CloudBase > 5,600 ft AGL from Temp-Dew spread
CeilingNone
Temp22°C
Dew Point08°C (41% RH)
AAT17.6°C
QNH1022 hPa
Raw Report
KSHM 210758Z AUTO 35011KT 10SM CLR 22/08 A3017 RMK AO2 SLP122
T02170077 403110178 $=

Extra information for KSHM:More info

Social comments